Time;durP1;ratioP1;P1;durP2;ratioP2;P2;SDS_P1;SDS_P2;PMS_P1;PMS_P2;Temp;Humidity;BMP_temperature;BMP_pressure;BME280_temperature;BME280_humidity;BME280_pressure;Samples;Min_cycle;Max_cycle;Signal;HPM_P1;HPM_P2
2023/05/06 00:01:04;;;;;;;2.95;1.90;;;20.00;1.00;;;;;;4835209;29;20537;-43
2023/05/06 00:03:31;;;;;;;3.05;2.20;;;19.90;1.00;;;;;;4842862;29;20045;-42
2023/05/06 00:05:58;;;;;;;2.78;1.83;;;20.00;1.00;;;;;;4841267;29;20419;-43
2023/05/06 00:08:25;;;;;;;4.72;1.85;;;19.90;1.00;;;;;;4841068;29;20049;-44
2023/05/06 00:10:52;;;;;;;2.55;1.85;;;19.90;1.00;;;;;;4837075;29;20060;-43
2023/05/06 00:13:19;;;;;;;3.42;2.22;;;19.90;1.00;;;;;;4842606;29;20053;-43
2023/05/06 00:15:45;;;;;;;3.40;2.20;;;19.90;1.00;;;;;;4842788;29;20084;-43
2023/05/06 00:18:14;;;;;;;2.63;2.00;;;19.90;1.00;;;;;;4842990;29;20502;-44
2023/05/06 00:20:41;;;;;;;5.82;2.20;;;19.90;1.00;;;;;;4842705;29;20061;-43
2023/05/06 00:23:07;;;;;;;3.80;1.85;;;19.90;1.00;;;;;;4856915;23;20098;-42
2023/05/06 00:25:34;;;;;;;3.58;2.20;;;19.90;1.00;;;;;;4833520;29;20060;-43
2023/05/06 00:28:01;;;;;;;5.10;2.30;;;19.90;1.00;;;;;;4835167;29;20380;-44
2023/05/06 00:30:28;;;;;;;5.00;2.00;;;19.90;1.00;;;;;;4840958;29;20041;-44
2023/05/06 00:32:55;;;;;;;4.43;1.95;;;19.90;1.00;;;;;;4824130;29;20050;-45
2023/05/06 00:35:22;;;;;;;5.38;2.25;;;19.90;1.00;;;;;;4838584;29;20049;-43
2023/05/06 00:38:09;;;;;;;2.90;1.73;;;19.90;1.00;;;;;;4842892;29;20509;-42
2023/05/06 00:40:36;;;;;;;9.95;2.72;;;19.90;1.00;;;;;;4834569;29;20050;-42
2023/05/06 00:43:04;;;;;;;3.33;2.00;;;19.90;1.00;;;;;;4841262;29;20054;-43
2023/05/06 00:45:31;;;;;;;4.50;2.95;;;19.90;1.00;;;;;;4842014;29;20053;-44
2023/05/06 00:47:58;;;;;;;3.95;2.00;;;19.80;1.00;;;;;;4842212;29;20405;-43
2023/05/06 00:50:27;;;;;;;3.58;2.05;;;19.80;1.00;;;;;;4840800;29;20056;-43
2023/05/06 00:52:57;;;;;;;4.40;2.55;;;19.80;1.00;;;;;;4836891;29;20414;-42
2023/05/06 00:55:25;;;;;;;3.97;2.45;;;19.80;1.00;;;;;;4841690;29;20521;-42
2023/05/06 00:57:53;;;;;;;4.43;2.47;;;19.80;1.00;;;;;;4834528;29;20042;-42
2023/05/06 01:00:20;;;;;;;6.60;2.30;;;19.80;1.00;;;;;;4841852;29;20447;-42
2023/05/06 01:02:47;;;;;;;4.93;3.25;;;19.80;1.00;;;;;;4841936;29;20046;-43
2023/05/06 01:05:17;;;;;;;4.20;2.47;;;19.80;1.00;;;;;;4834893;29;20038;-43
2023/05/06 01:07:51;;;;;;;5.43;2.28;;;19.80;1.00;;;;;;4826073;29;20049;-44
2023/05/06 01:10:24;;;;;;;2.65;2.00;;;19.80;1.00;;;;;;4841814;29;20046;-43
2023/05/06 01:13:05;;;;;;;4.32;2.03;;;19.80;1.00;;;;;;4842001;29;20068;-43
2023/05/06 01:15:44;;;;;;;3.78;2.40;;;19.80;1.00;;;;;;4840196;29;20070;-42
2023/05/06 01:18:15;;;;;;;3.78;2.40;;;19.80;1.00;;;;;;4839861;29;20042;-42
2023/05/06 01:20:50;;;;;;;4.75;2.70;;;19.80;1.00;;;;;;4840250;29;20070;-42
2023/05/06 01:23:19;;;;;;;5.32;2.92;;;19.80;1.00;;;;;;5039443;23;20057;-44
2023/05/06 01:25:45;;;;;;;5.55;2.53;;;19.80;1.00;;;;;;4829437;29;20051;-43
2023/05/06 01:28:12;;;;;;;4.57;3.08;;;19.80;1.00;;;;;;4830616;29;20055;-42
2023/05/06 01:30:50;;;;;;;5.75;2.33;;;19.80;1.00;;;;;;4841625;29;20052;-42
2023/05/06 01:33:38;;;;;;;2.80;2.00;;;19.80;1.00;;;;;;4835238;29;20113;-44
2023/05/06 01:36:16;;;;;;;4.50;2.70;;;19.70;1.00;;;;;;4840466;29;20102;-45
2023/05/06 01:38:51;;;;;;;4.18;2.38;;;19.70;1.00;;;;;;4842206;29;20049;-46
2023/05/06 01:41:20;;;;;;;3.33;2.38;;;19.70;1.00;;;;;;4833373;29;20054;-45
2023/05/06 01:43:48;;;;;;;3.45;2.25;;;19.80;1.00;;;;;;4825618;29;20101;-47
2023/05/06 01:46:18;;;;;;;3.28;2.50;;;19.70;1.00;;;;;;4840108;29;20068;-44
2023/05/06 01:48:48;;;;;;;3.28;2.10;;;19.70;1.00;;;;;;4840142;29;20045;-44
2023/05/06 01:51:15;;;;;;;4.85;1.90;;;19.70;1.00;;;;;;4840325;29;20053;-44
2023/05/06 01:53:41;;;;;;;3.22;2.47;;;19.70;1.00;;;;;;4824326;29;20054;-42
2023/05/06 01:56:08;;;;;;;4.55;2.75;;;19.70;1.00;;;;;;4831058;29;20089;-42
2023/05/06 01:58:37;;;;;;;4.63;3.03;;;19.70;1.00;;;;;;4831406;29;20047;-42
2023/05/06 02:01:04;;;;;;;3.13;1.85;;;19.70;1.00;;;;;;4839818;29;20499;-42
2023/05/06 02:03:32;;;;;;;3.05;2.35;;;19.70;1.00;;;;;;4833527;29;20039;-43
2023/05/06 02:05:59;;;;;;;4.35;2.90;;;19.70;1.00;;;;;;4841099;29;20525;-43
2023/05/06 02:08:29;;;;;;;4.50;2.22;;;19.70;1.00;;;;;;4840083;29;20069;-42
2023/05/06 02:10:55;;;;;;;3.55;2.22;;;19.70;1.00;;;;;;4835659;29;20046;-42
2023/05/06 02:13:22;;;;;;;4.00;2.47;;;19.70;1.00;;;;;;4821702;29;20054;-43
2023/05/06 02:15:53;;;;;;;5.53;3.00;;;19.70;1.00;;;;;;4839597;29;20499;-43
2023/05/06 02:18:21;;;;;;;6.63;2.67;;;19.70;1.00;;;;;;4832481;29;20103;-44
2023/05/06 02:20:48;;;;;;;3.67;2.38;;;19.70;1.00;;;;;;4825466;29;20050;-43
2023/05/06 02:23:50;;;;;;;4.25;2.50;;;19.70;1.00;;;;;;4841257;29;20167;-43
2023/05/06 02:26:17;;;;;;;2.55;2.05;;;19.70;1.00;;;;;;4797173;29;20047;-44
2023/05/06 02:28:44;;;;;;;3.90;2.50;;;19.60;1.00;;;;;;4802011;29;20134;-42
2023/05/06 02:31:15;;;;;;;3.88;2.00;;;19.60;1.00;;;;;;4802724;29;20042;-50
2023/05/06 02:33:43;;;;;;;4.78;2.00;;;19.60;1.00;;;;;;4801013;29;20101;-44
2023/05/06 02:36:10;;;;;;;4.45;2.45;;;19.60;1.00;;;;;;4807677;29;20050;-45
2023/05/06 02:38:37;;;;;;;2.78;2.17;;;19.60;1.00;;;;;;4807146;29;20099;-44
2023/05/06 02:41:04;;;;;;;4.93;2.45;;;19.60;1.00;;;;;;4809557;29;20035;-43
2023/05/06 02:43:31;;;;;;;4.30;2.38;;;19.60;1.00;;;;;;4800150;29;20055;-43
2023/05/06 02:45:57;;;;;;;3.33;2.25;;;19.60;1.00;;;;;;4806745;29;20050;-43
2023/05/06 02:48:24;;;;;;;3.60;2.15;;;19.60;1.00;;;;;;4807675;29;20122;-43
2023/05/06 02:50:51;;;;;;;3.97;2.92;;;19.60;1.00;;;;;;4806817;29;20058;-43
2023/05/06 02:53:18;;;;;;;4.35;2.60;;;19.60;1.00;;;;;;4806669;29;20416;-43
2023/05/06 02:55:45;;;;;;;5.13;2.28;;;19.60;1.00;;;;;;4868164;23;20042;-43
2023/05/06 02:58:12;;;;;;;4.50;2.90;;;19.60;1.00;;;;;;4835599;29;20050;-43
2023/05/06 03:00:39;;;;;;;4.57;2.75;;;19.50;1.00;;;;;;4818207;29;20051;-43
2023/05/06 03:03:06;;;;;;;3.78;2.33;;;19.50;1.00;;;;;;4824314;29;20050;-44
2023/05/06 03:05:33;;;;;;;3.42;2.20;;;19.50;1.00;;;;;;4818194;29;20047;-43
2023/05/06 03:08:01;;;;;;;3.70;2.60;;;19.50;1.00;;;;;;4824356;29;20050;-43
2023/05/06 03:10:28;;;;;;;4.55;2.17;;;19.50;1.00;;;;;;4824280;29;20511;-43
2023/05/06 03:12:56;;;;;;;3.03;2.47;;;19.50;1.00;;;;;;4816635;29;20419;-43
2023/05/06 03:15:23;;;;;;;5.38;2.53;;;19.50;1.00;;;;;;4825190;29;20050;-44
2023/05/06 03:17:50;;;;;;;5.40;2.15;;;19.50;1.00;;;;;;4809560;29;20039;-44
2023/05/06 03:20:17;;;;;;;3.05;2.33;;;19.50;1.00;;;;;;4824393;29;20133;-45
2023/05/06 03:22:49;;;;;;;5.05;2.60;;;19.50;1.00;;;;;;4824092;29;20047;-44
2023/05/06 03:25:17;;;;;;;4.28;2.58;;;19.50;1.00;;;;;;4824393;29;20388;-43
2023/05/06 03:27:45;;;;;;;3.40;2.28;;;19.50;1.00;;;;;;4823857;29;20468;-43
2023/05/06 03:30:17;;;;;;;5.47;2.70;;;19.50;1.00;;;;;;4816482;29;20050;-44
2023/05/06 03:32:46;;;;;;;3.90;2.40;;;19.50;1.00;;;;;;4823762;29;20050;-43
2023/05/06 03:35:17;;;;;;;4.10;2.25;;;19.50;1.00;;;;;;4823723;29;20038;-43
2023/05/06 03:37:48;;;;;;;3.22;2.25;;;19.50;1.00;;;;;;4823959;29;20042;-43
2023/05/06 03:40:16;;;;;;;3.47;2.10;;;19.50;1.00;;;;;;4823792;29;20038;-45
2023/05/06 03:42:43;;;;;;;4.70;2.30;;;19.50;1.00;;;;;;4823160;29;20401;-43
2023/05/06 03:45:11;;;;;;;2.70;1.77;;;19.50;1.00;;;;;;4823599;29;20523;-44
2023/05/06 03:47:38;;;;;;;3.35;2.35;;;19.40;1.00;;;;;;4823564;29;20104;-44
2023/05/06 03:50:07;;;;;;;2.55;2.00;;;19.40;1.00;;;;;;4811640;29;20141;-44
2023/05/06 03:52:35;;;;;;;2.58;1.90;;;19.40;1.00;;;;;;4821580;29;20141;-43
2023/05/06 03:57:57;;;;;;;3.22;2.15;;;19.40;1.00;;;;;;4856915;23;20070;-42
2023/05/06 04:00:24;;;;;;;2.72;1.73;;;19.40;1.00;;;;;;4833610;29;20046;-42
2023/05/06 04:02:53;;;;;;;3.13;1.77;;;19.40;1.00;;;;;;4825184;29;20103;-44
2023/05/06 04:05:27;;;;;;;2.85;2.00;;;19.40;1.00;;;;;;4833424;29;20385;-44
2023/05/06 04:07:54;;;;;;;3.45;1.60;;;19.40;1.00;;;;;;4833556;29;20049;-44
2023/05/06 04:10:21;;;;;;;3.22;1.70;;;19.40;1.00;;;;;;4841984;29;20429;-44
2023/05/06 04:12:51;;;;;;;2.65;1.77;;;19.40;1.00;;;;;;4840867;29;20503;-43
2023/05/06 04:15:23;;;;;;;2.83;2.17;;;19.40;1.00;;;;;;4833749;29;20069;-44
2023/05/06 04:17:50;;;;;;;3.50;2.45;;;19.40;1.00;;;;;;4841354;29;20133;-43
2023/05/06 04:20:17;;;;;;;2.88;2.05;;;19.40;1.00;;;;;;4841498;29;20084;-43
2023/05/06 04:22:44;;;;;;;2.35;1.65;;;19.40;1.00;;;;;;4841437;29;20141;-44
2023/05/06 04:25:11;;;;;;;3.67;2.00;;;19.40;1.00;;;;;;4841008;29;20045;-44
2023/05/06 04:27:39;;;;;;;2.25;1.55;;;19.40;1.00;;;;;;4843201;23;20054;-43
2023/05/06 04:30:08;;;;;;;2.53;2.08;;;19.40;1.00;;;;;;4833729;29;20070;-43
2023/05/06 04:32:37;;;;;;;3.38;2.28;;;19.40;1.00;;;;;;4826277;29;20136;-43
2023/05/06 04:35:05;;;;;;;2.63;2.03;;;19.40;1.00;;;;;;4840860;29;20045;-44
2023/05/06 04:37:33;;;;;;;2.72;1.65;;;19.30;1.00;;;;;;4833797;29;20402;-44
2023/05/06 04:40:08;;;;;;;2.95;2.00;;;19.30;1.00;;;;;;4829443;29;20065;-44
2023/05/06 04:42:37;;;;;;;3.45;1.98;;;19.30;1.00;;;;;;4839400;29;20057;-44
2023/05/06 04:45:10;;;;;;;3.13;1.80;;;19.30;1.00;;;;;;4833259;29;20118;-45
2023/05/06 04:47:39;;;;;;;2.55;1.75;;;19.30;1.00;;;;;;4841572;29;20529;-43
2023/05/06 04:50:08;;;;;;;2.92;1.88;;;19.30;1.00;;;;;;4841191;29;20046;-43
2023/05/06 04:52:35;;;;;;;1.75;1.38;;;19.30;1.00;;;;;;4840978;29;20050;-43
2023/05/06 04:55:03;;;;;;;4.57;2.17;;;19.30;1.00;;;;;;4841623;29;20065;-44
2023/05/06 04:57:33;;;;;;;2.55;1.90;;;19.30;1.00;;;;;;4883053;23;20146;-44
2023/05/06 05:00:01;;;;;;;2.63;1.95;;;19.30;1.00;;;;;;4835494;29;20051;-43
2023/05/06 05:02:28;;;;;;;3.00;1.83;;;19.30;1.00;;;;;;4829913;29;20050;-43
2023/05/06 05:04:55;;;;;;;3.55;1.90;;;19.30;1.00;;;;;;4827595;29;20054;-45
2023/05/06 05:07:22;;;;;;;2.42;1.80;;;19.30;1.00;;;;;;4816324;29;20107;-45
2023/05/06 05:09:49;;;;;;;2.90;1.98;;;19.30;1.00;;;;;;4822286;29;20067;-46
2023/05/06 05:12:16;;;;;;;3.55;2.38;;;19.30;1.00;;;;;;4822449;29;20053;-43
2023/05/06 05:14:46;;;;;;;3.92;2.25;;;19.30;1.00;;;;;;4819919;29;20042;-43
2023/05/06 05:17:14;;;;;;;3.75;1.90;;;19.30;1.00;;;;;;4816814;29;20133;-42
2023/05/06 05:19:41;;;;;;;4.07;1.63;;;19.30;1.00;;;;;;4822197;29;20054;-44
2023/05/06 05:22:10;;;;;;;3.00;1.58;;;19.30;1.00;;;;;;4822198;29;20141;-43
2023/05/06 05:24:38;;;;;;;2.28;1.65;;;19.30;1.00;;;;;;4821789;29;20050;-43
2023/05/06 05:29:55;;;;;;;4.75;1.90;;;19.30;1.00;;;;;;4947229;23;20054;-44
2023/05/06 05:32:22;;;;;;;3.97;1.88;;;19.30;1.00;;;;;;4832267;29;20054;-43
2023/05/06 05:34:49;;;;;;;2.85;1.55;;;19.30;1.00;;;;;;4833503;29;20046;-45
2023/05/06 05:37:17;;;;;;;2.08;1.50;;;19.30;1.00;;;;;;4834470;29;20571;-43
2023/05/06 05:39:44;;;;;;;2.30;1.35;;;19.30;1.00;;;;;;4838191;29;20141;-43
2023/05/06 05:42:13;;;;;;;2.20;1.75;;;19.30;1.00;;;;;;4840620;29;20077;-43
2023/05/06 05:44:43;;;;;;;2.80;1.48;;;19.30;1.00;;;;;;4839762;29;20130;-43
2023/05/06 05:47:11;;;;;;;2.25;1.52;;;19.30;1.00;;;;;;4833156;29;20049;-44
2023/05/06 05:49:38;;;;;;;4.03;1.75;;;19.30;1.00;;;;;;4827204;29;20062;-44
2023/05/06 05:52:06;;;;;;;6.53;1.98;;;19.30;1.00;;;;;;4823031;29;20046;-43
2023/05/06 05:54:33;;;;;;;2.55;1.60;;;19.30;1.00;;;;;;4825008;29;20047;-43
2023/05/06 05:57:00;;;;;;;5.13;1.60;;;19.30;1.00;;;;;;4828867;29;20034;-43
2023/05/06 05:59:28;;;;;;;3.70;2.08;;;19.30;1.00;;;;;;4821566;29;20042;-44
2023/05/06 06:02:14;;;;;;;5.18;1.90;;;19.30;1.00;;;;;;4815642;24;20062;-44
2023/05/06 06:04:41;;;;;;;2.50;1.27;;;19.40;1.00;;;;;;4808141;29;20078;-43
2023/05/06 06:07:08;;;;;;;4.18;1.63;;;19.40;1.00;;;;;;4802745;29;20077;-46
2023/05/06 06:09:38;;;;;;;4.25;1.85;;;19.40;1.00;;;;;;4803494;29;20104;-44
2023/05/06 06:12:05;;;;;;;2.95;1.35;;;19.40;1.00;;;;;;4802871;29;20047;-44
2023/05/06 06:14:34;;;;;;;2.00;1.58;;;19.40;1.00;;;;;;4802698;29;20053;-45
2023/05/06 06:17:01;;;;;;;3.55;2.03;;;19.40;1.00;;;;;;4803066;29;20507;-44
2023/05/06 06:19:29;;;;;;;2.20;1.40;;;19.40;1.00;;;;;;4802902;29;20467;-43
2023/05/06 06:21:56;;;;;;;10.38;2.28;;;19.40;1.00;;;;;;4820606;29;20091;-43
2023/05/06 06:24:23;;;;;;;10.82;6.78;;;19.40;1.00;;;;;;4820823;29;20085;-43
2023/05/06 06:26:50;;;;;;;13.77;7.70;;;19.40;1.00;;;;;;4820863;29;20064;-44
2023/05/06 06:29:17;;;;;;;15.93;7.07;;;19.40;1.00;;;;;;4822626;29;20048;-44
2023/05/06 06:31:44;;;;;;;11.35;6.07;;;19.40;1.00;;;;;;4990454;23;20536;-45
2023/05/06 06:34:11;;;;;;;8.32;5.43;;;19.50;1.00;;;;;;4818612;29;20042;-45
2023/05/06 06:36:43;;;;;;;15.10;6.35;;;19.50;1.00;;;;;;4822299;29;20443;-44
2023/05/06 06:39:11;;;;;;;7.13;4.80;;;19.50;1.00;;;;;;4822478;29;20107;-45
2023/05/06 06:41:38;;;;;;;5.60;4.18;;;19.50;1.00;;;;;;4822588;29;20411;-44
2023/05/06 06:44:05;;;;;;;11.38;4.35;;;19.50;1.00;;;;;;4822466;29;20073;-44
2023/05/06 06:46:32;;;;;;;5.20;3.90;;;19.50;1.00;;;;;;4822585;29;20128;-45
2023/05/06 06:49:00;;;;;;;6.65;3.22;;;19.50;1.00;;;;;;4822222;29;20054;-44
2023/05/06 06:51:27;;;;;;;4.63;3.08;;;19.50;1.00;;;;;;4822521;29;20042;-45
2023/05/06 06:53:54;;;;;;;6.28;3.17;;;19.60;1.00;;;;;;4822178;29;20151;-45
2023/05/06 06:56:21;;;;;;;9.10;3.30;;;19.60;1.00;;;;;;4822400;29;20050;-45
2023/05/06 06:58:48;;;;;;;9.68;3.22;;;19.60;1.00;;;;;;4822220;29;20050;-43
2023/05/06 07:01:18;;;;;;;6.22;2.90;;;19.60;1.00;;;;;;4817616;29;20173;-44
2023/05/06 07:03:45;;;;;;;7.15;3.72;;;19.60;1.00;;;;;;4819926;29;20042;-43
2023/05/06 07:06:12;;;;;;;6.47;3.38;;;19.60;1.00;;;;;;4814673;29;20065;-46
2023/05/06 07:08:39;;;;;;;6.30;3.45;;;19.70;1.00;;;;;;4822544;29;20107;-43
2023/05/06 07:11:06;;;;;;;6.40;3.58;;;19.70;1.00;;;;;;4822577;29;20054;-44
2023/05/06 07:13:33;;;;;;;8.18;2.60;;;19.70;1.00;;;;;;4821979;29;20046;-44
2023/05/06 07:15:59;;;;;;;10.10;3.20;;;19.70;1.00;;;;;;4822004;29;20038;-45
2023/05/06 07:18:26;;;;;;;6.28;2.42;;;19.70;1.00;;;;;;4825135;29;20042;-44
2023/05/06 07:20:53;;;;;;;4.65;2.15;;;19.80;1.00;;;;;;4825249;29;20039;-45
2023/05/06 07:23:20;;;;;;;5.72;2.17;;;19.80;1.00;;;;;;4825321;29;20644;-45
2023/05/06 07:25:47;;;;;;;4.43;2.28;;;19.80;1.00;;;;;;4821020;29;20065;-45
2023/05/06 07:28:14;;;;;;;4.47;1.67;;;19.80;1.00;;;;;;4825047;29;20500;-44
2023/05/06 07:30:41;;;;;;;5.35;2.00;;;19.80;1.00;;;;;;4825069;29;20047;-45
2023/05/06 07:33:08;;;;;;;6.68;1.88;;;19.90;1.00;;;;;;4854335;23;20110;-45
2023/05/06 07:35:35;;;;;;;2.53;1.13;;;19.90;1.00;;;;;;4835348;29;20095;-44
2023/05/06 07:38:02;;;;;;;5.03;1.83;;;19.90;1.00;;;;;;4835527;29;20102;-44
2023/05/06 07:40:29;;;;;;;5.28;1.60;;;19.90;1.00;;;;;;4843395;29;20051;-44
2023/05/06 07:42:56;;;;;;;6.60;1.73;;;19.90;1.00;;;;;;4835667;29;20042;-45
2023/05/06 07:45:24;;;;;;;3.97;1.33;;;20.00;1.00;;;;;;4843132;29;20049;-44
2023/05/06 07:47:50;;;;;;;7.00;1.67;;;20.00;1.00;;;;;;4843519;29;20054;-46
2023/05/06 07:50:17;;;;;;;3.95;1.92;;;20.00;1.00;;;;;;4835575;29;20302;-44
2023/05/06 07:52:44;;;;;;;4.13;1.25;;;20.00;1.00;;;;;;4843025;29;20499;-44
2023/05/06 07:55:11;;;;;;;4.20;1.42;;;20.00;1.00;;;;;;4842836;29;20444;-44
2023/05/06 07:57:38;;;;;;;3.10;1.63;;;20.10;1.00;;;;;;4841950;29;20053;-44
2023/05/06 08:00:06;;;;;;;2.67;1.50;;;20.10;1.00;;;;;;4828182;29;20038;-44
2023/05/06 08:05:28;;;;;;;4.22;1.25;;;20.10;1.00;;;;;;4825012;29;20050;-44
2023/05/06 08:07:55;;;;;;;4.40;1.48;;;20.10;1.00;;;;;;4833405;29;20448;-46
2023/05/06 08:10:22;;;;;;;3.88;1.33;;;20.20;1.00;;;;;;4837392;29;20162;-42
2023/05/06 08:12:48;;;;;;;4.38;1.25;;;20.20;1.00;;;;;;4849194;29;20058;-44
2023/05/06 08:15:15;;;;;;;3.75;1.20;;;20.20;1.00;;;;;;4842550;29;20037;-45
2023/05/06 08:17:42;;;;;;;3.13;1.27;;;20.20;1.00;;;;;;4843179;29;20384;-44
2023/05/06 08:20:10;;;;;;;3.58;1.35;;;20.30;1.00;;;;;;4842684;29;20117;-45
2023/05/06 08:22:37;;;;;;;2.20;1.33;;;20.30;1.00;;;;;;4835135;29;20430;-48
2023/05/06 08:25:04;;;;;;;1.38;1.05;;;20.30;1.00;;;;;;4842142;29;20183;-44
2023/05/06 08:27:31;;;;;;;2.95;0.82;;;20.30;1.00;;;;;;4828438;29;20093;-43
2023/05/06 08:29:57;;;;;;;6.68;2.47;;;20.30;1.00;;;;;;4841228;29;20179;-46
2023/05/06 08:32:24;;;;;;;3.78;1.20;;;20.30;1.00;;;;;;4842612;29;20049;-47
2023/05/06 08:37:49;;;;;;;2.50;1.05;;;20.40;1.00;;;;;;4814879;29;20061;-48
2023/05/06 08:40:21;;;;;;;2.47;1.23;;;20.40;1.00;;;;;;4813405;29;20395;-46
2023/05/06 08:42:49;;;;;;;3.50;1.63;;;20.40;1.00;;;;;;4821659;29;20070;-45
2023/05/06 08:45:17;;;;;;;1.83;0.80;;;20.40;1.00;;;;;;4819380;29;20722;-46
2023/05/06 08:47:46;;;;;;;4.05;1.40;;;20.50;1.00;;;;;;4821083;29;20062;-44
2023/05/06 08:50:12;;;;;;;3.42;1.40;;;20.50;1.00;;;;;;4824006;29;20111;-45
2023/05/06 08:52:39;;;;;;;8.40;1.92;;;20.50;1.00;;;;;;4823894;29;20457;-46
2023/05/06 08:55:08;;;;;;;5.60;1.17;;;20.50;1.00;;;;;;4815917;29;20043;-45
2023/05/06 08:57:36;;;;;;;2.60;0.90;;;20.50;1.00;;;;;;4823799;29;20034;-49
2023/05/06 09:00:03;;;;;;;2.45;1.05;;;20.60;1.00;;;;;;4823807;29;20529;-44
2023/05/06 09:02:30;;;;;;;3.05;1.25;;;20.60;1.00;;;;;;4823717;29;20049;-46
2023/05/06 09:04:59;;;;;;;2.55;1.20;;;20.60;1.00;;;;;;4823661;29;20051;-44
2023/05/06 09:07:26;;;;;;;1.83;1.10;;;20.60;1.00;;;;;;4945069;23;20426;-43
2023/05/06 09:09:52;;;;;;;3.55;1.55;;;20.60;1.00;;;;;;4814826;29;20051;-43
2023/05/06 09:12:19;;;;;;;9.18;1.98;;;20.60;1.00;;;;;;4816057;29;20076;-44
2023/05/06 09:14:48;;;;;;;9.00;1.73;;;20.60;1.00;;;;;;4822778;29;20042;-44
2023/05/06 09:17:22;;;;;;;9.57;2.15;;;20.70;1.00;;;;;;4816739;29;20098;-44
2023/05/06 09:19:51;;;;;;;8.18;2.17;;;20.70;1.00;;;;;;4823396;29;20051;-45
2023/05/06 09:22:21;;;;;;;5.57;1.75;;;20.70;1.00;;;;;;4823249;29;20129;-43
2023/05/06 09:24:55;;;;;;;7.70;1.52;;;20.70;1.00;;;;;;4815265;29;20066;-44
2023/05/06 09:27:30;;;;;;;7.95;2.20;;;20.70;1.00;;;;;;4822330;29;20133;-43
2023/05/06 09:30:05;;;;;;;6.93;1.63;;;20.70;1.00;;;;;;4823453;29;20175;-44
2023/05/06 09:32:33;;;;;;;13.05;2.22;;;20.70;1.00;;;;;;4823235;29;20038;-44
2023/05/06 09:35:01;;;;;;;5.47;2.33;;;20.70;1.00;;;;;;4822913;29;20046;-44
2023/05/06 09:37:28;;;;;;;9.60;1.70;;;20.80;1.00;;;;;;4850541;23;20110;-45
2023/05/06 09:39:59;;;;;;;5.55;0.98;;;20.80;1.00;;;;;;4829460;29;20126;-44
2023/05/06 09:42:29;;;;;;;4.40;1.10;;;20.80;1.00;;;;;;4833746;29;20049;-45
2023/05/06 09:45:00;;;;;;;7.53;1.88;;;20.80;1.00;;;;;;4839710;29;20114;-44
2023/05/06 09:47:33;;;;;;;6.13;1.25;;;20.80;1.00;;;;;;4835930;29;20046;-44
2023/05/06 09:50:01;;;;;;;8.82;1.70;;;20.80;1.00;;;;;;4841152;29;20076;-46
2023/05/06 09:52:29;;;;;;;3.75;1.80;;;20.80;1.00;;;;;;4841192;29;20121;-45
2023/05/06 09:54:57;;;;;;;6.65;1.77;;;20.80;1.00;;;;;;4833568;29;20463;-45
2023/05/06 09:57:24;;;;;;;3.63;1.55;;;20.80;1.00;;;;;;4841002;29;20089;-45
2023/05/06 09:59:52;;;;;;;8.65;1.77;;;20.80;1.00;;;;;;4841097;29;20050;-45
2023/05/06 10:02:21;;;;;;;4.25;1.10;;;20.80;1.00;;;;;;4841068;29;20042;-44
2023/05/06 10:04:51;;;;;;;5.88;1.05;;;20.80;1.00;;;;;;4840543;29;20137;-45
2023/05/06 10:07:24;;;;;;;2.72;1.27;;;20.90;1.00;;;;;;4835161;29;20042;-45
2023/05/06 10:09:53;;;;;;;3.57;1.27;;;20.90;1.00;;;;;;4832783;29;20061;-44
2023/05/06 10:12:20;;;;;;;5.85;1.05;;;20.90;1.00;;;;;;4837002;29;20042;-44
2023/05/06 10:14:47;;;;;;;7.35;1.77;;;20.90;1.00;;;;;;4837445;29;20050;-44
2023/05/06 10:17:17;;;;;;;3.08;1.10;;;20.90;1.00;;;;;;4833115;29;20046;-44
2023/05/06 10:19:51;;;;;;;4.55;2.15;;;20.90;1.00;;;;;;4841019;29;20050;-45
2023/05/06 10:22:50;;;;;;;3.45;0.82;;;20.90;1.00;;;;;;4837212;29;20039;-44
2023/05/06 10:25:27;;;;;;;4.88;1.38;;;20.90;1.00;;;;;;4799295;29;20065;-45
2023/05/06 10:27:54;;;;;;;4.38;0.90;;;20.90;1.00;;;;;;4838486;29;20124;-45
2023/05/06 10:30:22;;;;;;;4.55;1.83;;;20.90;1.00;;;;;;4840849;29;20053;-44
2023/05/06 10:32:53;;;;;;;4.90;1.38;;;20.90;1.00;;;;;;4840685;29;20058;-45
2023/05/06 10:35:37;;;;;;;2.92;1.38;;;20.90;1.00;;;;;;4828845;29;20103;-45
2023/05/06 10:38:27;;;;;;;8.07;1.38;;;21.00;1.00;;;;;;5151083;23;20043;-44
2023/05/06 10:40:55;;;;;;;3.38;1.45;;;21.00;1.00;;;;;;4833672;29;20442;-43
2023/05/06 10:43:29;;;;;;;8.40;1.55;;;21.00;1.00;;;;;;4826855;29;20041;-44
2023/05/06 10:46:02;;;;;;;2.67;0.93;;;21.00;1.00;;;;;;4840380;29;20069;-44
2023/05/06 10:48:29;;;;;;;;;;;21.00;1.00;;;;;;4833722;29;20042;-44
2023/05/06 10:51:15;;;;;;;3.80;0.82;;;21.00;1.00;;;;;;4841565;29;19924;-45
2023/05/06 10:54:02;;;;;;;5.35;1.98;;;21.00;1.00;;;;;;4843981;29;20042;-45
2023/05/06 10:57:01;;;;;;;4.80;1.55;;;21.00;1.00;;;;;;4839002;29;20125;-45
2023/05/06 10:59:29;;;;;;;5.10;1.42;;;21.00;1.00;;;;;;4832483;29;20069;-43
2023/05/06 11:02:07;;;;;;;7.75;1.77;;;21.00;1.00;;;;;;4843989;29;20046;-43
2023/05/06 11:04:36;;;;;;;4.47;1.40;;;21.00;1.00;;;;;;4844094;29;20407;-43
2023/05/06 11:07:10;;;;;;;4.53;1.25;;;21.00;1.00;;;;;;4843937;29;20094;-43
2023/05/06 11:12:51;;;;;;;3.55;1.27;;;21.00;1.00;;;;;;4799262;29;20127;-45
2023/05/06 11:15:34;;;;;;;5.93;1.20;;;21.00;1.00;;;;;;4798784;29;20138;-48
2023/05/06 11:18:25;;;;;;;5.50;1.10;;;21.00;1.00;;;;;;4806988;29;20487;-43
2023/05/06 11:21:13;;;;;;;6.85;2.63;;;21.00;1.00;;;;;;4798230;29;20058;-44
2023/05/06 11:23:48;;;;;;;6.20;1.60;;;21.00;1.00;;;;;;4806843;29;20049;-44
2023/05/06 11:26:15;;;;;;;5.22;1.58;;;21.00;1.00;;;;;;4806994;29;20047;-46
2023/05/06 11:28:47;;;;;;;9.65;1.75;;;21.00;1.00;;;;;;4800516;29;20055;-45
2023/05/06 11:31:15;;;;;;;9.67;2.30;;;21.00;1.00;;;;;;4806894;29;20560;-44
2023/05/06 11:33:51;;;;;;;9.25;1.88;;;21.00;1.00;;;;;;4806484;29;20806;-46
2023/05/06 11:36:19;;;;;;;4.07;1.08;;;21.00;1.00;;;;;;4801043;29;20127;-44
2023/05/06 11:38:48;;;;;;;7.82;1.60;;;21.00;1.00;;;;;;4803362;29;20070;-44
2023/05/06 11:41:15;;;;;;;13.55;2.38;;;21.00;1.00;;;;;;4880721;23;20114;-44
2023/05/06 11:43:59;;;;;;;7.28;1.48;;;21.00;1.00;;;;;;4814362;29;20055;-44
2023/05/06 11:46:34;;;;;;;13.82;2.53;;;21.00;1.00;;;;;;4815867;29;20125;-43
2023/05/06 11:49:01;;;;;;;8.02;1.38;;;21.00;1.00;;;;;;4816115;29;20054;-44
2023/05/06 11:51:28;;;;;;;4.95;1.52;;;21.00;1.00;;;;;;4820520;29;20046;-43
2023/05/06 11:54:06;;;;;;;4.18;1.17;;;21.00;1.00;;;;;;4821684;29;20048;-45
2023/05/06 11:57:02;;;;;;;5.72;1.73;;;21.00;1.00;;;;;;4824697;29;20039;-45
2023/05/06 11:59:34;;;;;;;8.55;1.63;;;21.00;1.00;;;;;;4824216;29;20062;-45
2023/05/06 12:02:12;;;;;;;5.03;1.37;;;21.00;1.00;;;;;;4816694;29;20499;-45
2023/05/06 12:04:42;;;;;;;8.13;2.35;;;21.00;1.00;;;;;;4824395;29;20850;-42
2023/05/06 12:07:12;;;;;;;4.78;1.50;;;21.00;1.00;;;;;;4825042;29;20438;-43
2023/05/06 12:09:47;;;;;;;4.63;1.35;;;21.00;1.00;;;;;;4824445;29;20133;-45
2023/05/06 12:12:17;;;;;;;5.20;1.05;;;21.00;1.00;;;;;;4818298;29;20067;-44
2023/05/06 12:14:46;;;;;;;8.93;1.30;;;20.90;1.00;;;;;;4815083;29;20047;-44
2023/05/06 12:17:13;;;;;;;3.58;0.82;;;20.90;1.00;;;;;;4816024;29;20564;-45
2023/05/06 12:19:40;;;;;;;6.88;1.25;;;20.90;1.00;;;;;;4824457;29;20121;-46
2023/05/06 12:22:33;;;;;;;6.80;1.80;;;20.90;1.00;;;;;;4816925;29;20046;-45
2023/05/06 12:25:12;;;;;;;4.63;0.70;;;20.90;1.00;;;;;;4823070;29;20065;-45
2023/05/06 12:27:39;;;;;;;3.78;1.20;;;20.90;1.00;;;;;;4824282;29;20062;-44
2023/05/06 12:30:07;;;;;;;8.75;1.73;;;20.90;1.00;;;;;;4816658;29;20086;-45
2023/05/06 12:32:35;;;;;;;5.75;1.75;;;20.90;1.00;;;;;;4824173;29;20122;-45
2023/05/06 12:35:06;;;;;;;7.10;1.58;;;20.90;1.00;;;;;;4823780;29;20049;-46
2023/05/06 12:37:33;;;;;;;10.10;1.67;;;20.90;1.00;;;;;;4824298;29;20130;-50
2023/05/06 12:40:00;;;;;;;5.40;1.70;;;20.90;1.00;;;;;;4824067;29;20084;-45
2023/05/06 12:42:27;;;;;;;5.63;1.42;;;20.90;1.00;;;;;;4818607;29;20441;-45
2023/05/06 12:44:54;;;;;;;3.50;0.90;;;20.90;1.00;;;;;;4814693;29;20050;-45
2023/05/06 12:47:22;;;;;;;6.63;1.73;;;20.90;1.00;;;;;;4801734;29;20392;-45
2023/05/06 12:49:53;;;;;;;3.97;1.13;;;20.90;1.00;;;;;;4817347;29;20573;-49
2023/05/06 12:52:21;;;;;;;8.00;1.63;;;20.90;1.00;;;;;;4814271;29;20069;-45
2023/05/06 12:54:49;;;;;;;4.63;1.90;;;20.90;1.00;;;;;;4823576;29;20054;-45
2023/05/06 12:57:16;;;;;;;5.20;1.08;;;21.00;1.00;;;;;;4823952;29;20050;-46
2023/05/06 12:59:46;;;;;;;4.22;0.80;;;21.00;1.00;;;;;;4817900;29;20038;-47
2023/05/06 13:02:14;;;;;;;5.95;1.52;;;20.90;1.00;;;;;;4822770;29;20074;-44
2023/05/06 13:04:41;;;;;;;5.25;1.13;;;20.90;1.00;;;;;;4823305;29;20118;-44
2023/05/06 13:07:08;;;;;;;4.30;1.13;;;20.90;1.00;;;;;;4823709;29;20074;-42
2023/05/06 13:09:34;;;;;;;2.60;1.02;;;20.90;1.00;;;;;;4823719;29;20050;-47
2023/05/06 13:12:03;;;;;;;5.45;1.88;;;21.00;1.00;;;;;;4823671;29;20073;-43
2023/05/06 13:15:00;;;;;;;5.30;1.55;;;21.00;1.00;;;;;;4895372;23;20414;-44
2023/05/06 13:17:27;;;;;;;5.10;1.23;;;21.00;1.00;;;;;;4815634;29;20054;-43
2023/05/06 13:19:55;;;;;;;5.20;1.00;;;21.00;1.00;;;;;;4816006;29;20046;-44
2023/05/06 13:22:23;;;;;;;4.65;0.95;;;21.00;1.00;;;;;;4820393;29;20088;-45
2023/05/06 13:24:50;;;;;;;3.60;1.27;;;21.00;1.00;;;;;;4819053;29;20699;-45